Главная страница
METAR-TAF:

METAR-TAF

Аэропорты :

Уральск, Казахстан

широта: 51-15N, долгота: 051-17E, высота над уровнем моря: 36 м

Текущие метеонаблюдения

Эта сводка был подготовлена 20 минут назад, в 11:00 UTC
Ветер 6 Узел от северный
Температура 17°C
Влажность 72%
Давление 1014 hPa
Видимость 10 км и более
Рассеянная облачность на высоте 3300 фута, Кучево-дождевые.
Сплошная облачность на высоте 8300 фута

METAR: UARR 261100Z 35003MPS 9999 BKN033CB OVC083 17/12 Q1014 R04/CLRD70 NOSIG RMK QFE757/1010

Время: 16:20 (11:20 UTC)

Прогноз

Эта сводка был подготовлена 3 часа и 19 минут назад, в 08:01 UTC
Прогноз действительный с 26-го 09 UTC до 26-го 18 UTC
Ветер 10 Узел от восточный
Видимость 10 км и более
Рассеянная облачность на высоте 2000 фута, Кучево-дождевые.
временами
С 26-го 09 UTC до 26-го 15 UTC
Рассеянная облачность на высоте 1000 фута
небольшие ливневые дожди

TAF: UARR 260801Z 2609/2618 08005MPS 9999 BKN020CB TEMPO 2609/2615 -SHRA BKN010

Метеонаблюдения и прогнозы для более 4000 аэропортов (сводки METAR и TAF).

Имеющиеся станции представлены на карте желтыми и красными точками.

Чтобы увидеть название станции, наведите на нее мышь.

Затем щелкните, чтобы увидеть метеонаблюдения и метеопрогнозы.

Управление картой: чтобы увеличить масштаб, щелкните зеленые кнопки с черным крестиком; чтобы уменьшить масштаб, щелкните зеленую кнопку с тире; для просмотра соседних карт щелкайте зеленые стрелки.


METAR-TAF: